Time;durP1;ratioP1;P1;durP2;ratioP2;P2;SDS_P1;SDS_P2;PMS_P1;PMS_P2;Temp;Humidity;BMP_temperature;BMP_pressure;BME280_temperature;BME280_humidity;BME280_pressure;Samples;Min_cycle;Max_cycle;Signal;HPM_P1;HPM_P2
2024/03/01 00:01:30;;;;;;;;;;;;;;;21.41;39.10;100202.75;4132101;28;19926;-58
2024/03/01 00:03:32;;;;;;;;;;;;;;;21.42;39.15;100203.56;4132154;28;19926;-58
2024/03/01 00:05:34;;;;;;;;;;;;;;;21.44;39.33;100212.31;4132016;28;20372;-58
2024/03/01 00:07:35;;;;;;;;;;;;;;;21.44;39.09;100213.16;4131843;28;19926;-58
2024/03/01 00:09:37;;;;;;;;;;;;;;;21.43;39.10;100214.13;4132016;28;19925;-58
2024/03/01 00:11:38;;;;;;;;;;;;;;;21.43;39.09;100219.47;4132123;28;20017;-58
2024/03/01 00:13:41;;;;;;;;;;;;;;;21.43;39.06;100221.31;4132016;28;19936;-58
2024/03/01 00:15:43;;;;;;;;;;;;;;;21.42;39.28;100227.66;4131922;28;20363;-58
2024/03/01 00:17:44;;;;;;;;;;;;;;;21.42;38.92;100231.16;4131853;28;19926;-58
2024/03/01 00:19:46;;;;;;;;;;;;;;;21.41;39.14;100239.31;4131979;28;20300;-58
2024/03/01 00:21:50;;;;;;;;;;;;;;;21.38;39.00;100240.44;4131307;28;19930;-58
2024/03/01 00:23:52;;;;;;;;;;;;;;;21.35;38.92;100233.53;4131761;28;20312;-58
2024/03/01 00:25:56;;;;;;;;;;;;;;;21.35;39.10;100238.03;4131824;28;19929;-57
2024/03/01 00:27:58;;;;;;;;;;;;;;;21.36;39.07;100235.25;4131676;28;20012;-58
2024/03/01 00:30:00;;;;;;;;;;;;;;;21.38;38.87;100241.28;4114487;28;19962;-59
2024/03/01 00:32:01;;;;;;;;;;;;;;;21.39;39.02;100242.97;4131683;28;20288;-59
2024/03/01 00:34:03;;;;;;;;;;;;;;;21.37;38.93;100242.28;4114422;28;19926;-58
2024/03/01 00:36:04;;;;;;;;;;;;;;;21.38;38.84;100245.81;4131223;28;20431;-58
2024/03/01 00:38:06;;;;;;;;;;;;;;;21.37;38.69;100244.09;4131683;28;19925;-59
2024/03/01 00:40:08;;;;;;;;;;;;;;;21.38;38.73;100251.97;4131576;28;20357;-58
2024/03/01 00:42:09;;;;;;;;;;;;;;;21.39;38.74;100252.84;4131663;28;20308;-59
2024/03/01 00:44:11;;;;;;;;;;;;;;;21.38;38.56;100251.16;4131959;28;19925;-59
2024/03/01 00:46:13;;;;;;;;;;;;;;;21.36;38.43;100255.78;4131486;28;19930;-58
2024/03/01 00:48:15;;;;;;;;;;;;;;;21.35;38.63;100260.28;4131373;28;19937;-59
2024/03/01 00:50:19;;;;;;;;;;;;;;;21.32;38.65;100257.88;4131580;28;19933;-58
2024/03/01 00:52:21;;;;;;;;;;;;;;;21.32;38.80;100254.38;4131299;28;20013;-59
2024/03/01 00:54:23;;;;;;;;;;;;;;;21.32;38.61;100260.56;4131612;28;19953;-58
2024/03/01 00:56:25;;;;;;;;;;;;;;;21.34;38.63;100255.09;4114452;28;19930;-59
2024/03/01 00:58:26;;;;;;;;;;;;;;;21.34;38.36;100253.25;4131633;28;19925;-58
2024/03/01 01:00:28;;;;;;;;;;;;;;;21.35;38.44;100252.28;4131468;28;19926;-58
2024/03/01 01:02:30;;;;;;;;;;;;;;;21.36;38.59;100251.28;4131575;28;19965;-58
2024/03/01 01:04:42;;;;;;;;;;;;;;;21.35;38.38;100246.91;4131340;28;19932;-59
2024/03/01 01:06:44;;;;;;;;;;;;;;;21.35;38.22;100248.72;4131199;28;19929;-58
2024/03/01 01:08:45;;;;;;;;;;;;;;;21.35;38.60;100248.72;4131350;28;19930;-58
2024/03/01 01:10:47;;;;;;;;;;;;;;;21.32;38.35;100251.69;4114558;28;19926;-58
2024/03/01 01:12:49;;;;;;;;;;;;;;;21.29;38.45;100246.59;4131771;28;19925;-58
2024/03/01 01:14:50;;;;;;;;;;;;;;;21.28;38.63;100250.28;4131480;28;19929;-58
2024/03/01 01:16:52;;;;;;;;;;;;;;;21.27;38.38;100248.59;4131565;28;19929;-58
2024/03/01 01:18:55;;;;;;;;;;;;;;;21.27;38.39;100253.94;4131335;28;19960;-58
2024/03/01 01:20:57;;;;;;;;;;;;;;;21.27;38.17;100249.41;4131113;28;20347;-58
2024/03/01 01:22:59;;;;;;;;;;;;;;;21.30;38.33;100248.31;4131378;28;19980;-57
2024/03/01 01:25:00;;;;;;;;;;;;;;;21.31;38.20;100250.88;4131285;28;19926;-58
2024/03/01 01:27:02;;;;;;;;;;;;;;;21.32;38.23;100257.03;4131384;28;19969;-58
2024/03/01 01:29:04;;;;;;;;;;;;;;;21.33;38.22;100256.06;4131387;28;19926;-58
2024/03/01 01:31:08;;;;;;;;;;;;;;;21.33;38.05;100262.25;4131358;28;20350;-58
2024/03/01 01:33:09;;;;;;;;;;;;;;;21.32;38.16;100271.25;4131083;28;19926;-58
2024/03/01 01:35:11;;;;;;;;;;;;;;;21.30;38.18;100265.22;4113606;28;20299;-58
2024/03/01 01:37:13;;;;;;;;;;;;;;;21.28;38.07;100272.50;4131129;28;19933;-58
2024/03/01 01:39:14;;;;;;;;;;;;;;;21.25;38.31;100282.63;4132752;28;19937;-57
2024/03/01 01:41:16;;;;;;;;;;;;;;;21.24;38.35;100284.47;4134202;28;19972;-57
2024/03/01 01:43:17;;;;;;;;;;;;;;;21.23;38.37;100278.25;4134331;28;20508;-58
2024/03/01 01:45:19;;;;;;;;;;;;;;;21.24;38.20;100287.16;4134316;28;19957;-58
2024/03/01 01:47:21;;;;;;;;;;;;;;;21.28;38.25;100285.06;4134199;28;19977;-58
2024/03/01 01:49:23;;;;;;;;;;;;;;;21.30;37.99;100277.72;4133720;28;19926;-57
2024/03/01 01:51:25;;;;;;;;;;;;;;;21.30;37.98;100278.59;4134036;28;19926;-58
2024/03/01 01:53:27;;;;;;;;;;;;;;;21.30;38.21;100277.72;4133787;28;19925;-58
2024/03/01 01:55:32;;;;;;;;;;;;;;;21.30;38.12;100270.56;4134049;28;19926;-59
2024/03/01 01:57:34;;;;;;;;;;;;;;;21.29;38.01;100270.66;4133702;28;20395;-58
2024/03/01 01:59:36;;;;;;;;;;;;;;;21.28;37.84;100271.69;4134196;28;19937;-58
2024/03/01 02:01:38;;;;;;;;;;;;;;;21.26;37.76;100260.25;4133966;28;19925;-58
2024/03/01 02:03:40;;;;;;;;;;;;;;;21.24;37.91;100257.72;4133508;28;19960;-58
2024/03/01 02:05:41;;;;;;;;;;;;;;;21.23;37.85;100262.22;4133765;28;20363;-58
2024/03/01 02:07:43;;;;;;;;;;;;;;;21.22;38.17;100255.16;4133855;28;19988;-58
2024/03/01 02:09:46;;;;;;;;;;;;;;;21.23;37.93;100251.53;4116540;28;19926;-58
2024/03/01 02:11:47;;;;;;;;;;;;;;;21.24;37.92;100247.03;4133507;28;19932;-58
2024/03/01 02:13:53;;;;;;;;;;;;;;;21.23;37.88;100240.81;4133711;28;20299;-58
2024/03/01 02:15:55;;;;;;;;;;;;;;;21.29;38.01;100235.91;4133492;28;19925;-58
2024/03/01 02:17:57;;;;;;;;;;;;;;;21.27;37.68;100233.38;4133439;28;19941;-58
2024/03/01 02:19:59;;;;;;;;;;;;;;;21.29;37.57;100230.56;4133670;28;19981;-57
2024/03/01 02:22:28;;;;;;;;;;;;;;;21.28;37.85;100223.53;4116500;28;19927;-58
2024/03/01 02:24:29;;;;;;;;;;;;;;;21.30;37.67;100226.91;4130903;28;20347;-58
2024/03/01 02:26:32;;;;;;;;;;;;;;;21.27;37.64;100219.16;4133570;28;19926;-58
2024/03/01 02:28:33;;;;;;;;;;;;;;;21.23;37.70;100222.09;4133356;28;19953;-58
2024/03/01 02:30:35;;;;;;;;;;;;;;;21.21;37.83;100209.84;4133383;28;20005;-58
2024/03/01 02:32:37;;;;;;;;;;;;;;;21.20;37.60;100202.81;4133104;28;20024;-58
2024/03/01 02:34:39;;;;;;;;;;;;;;;21.19;37.87;100195.75;4133196;28;20012;-58
2024/03/01 02:36:40;;;;;;;;;;;;;;;21.20;37.59;100194.78;4133274;28;19925;-58
2024/03/01 02:38:42;;;;;;;;;;;;;;;21.20;38.01;100192.09;4133373;28;20013;-58
2024/03/01 02:40:44;;;;;;;;;;;;;;;21.22;37.87;100185.63;4116167;28;19942;-58
2024/03/01 02:42:45;;;;;;;;;;;;;;;21.22;37.85;100182.97;4116001;28;19926;-58
2024/03/01 02:44:47;;;;;;;;;;;;;;;21.25;37.47;100181.84;4133708;28;19968;-58
2024/03/01 02:46:48;;;;;;;;;;;;;;;21.25;37.53;100179.16;4132840;28;19930;-58
2024/03/01 02:48:50;;;;;;;;;;;;;;;21.27;37.54;100176.38;4133173;28;19968;-57
2024/03/01 02:50:52;;;;;;;;;;;;;;;21.22;37.55;100164.25;4132196;28;19933;-58
2024/03/01 02:52:53;;;;;;;;;;;;;;;21.20;37.59;100168.91;4133117;28;19925;-58
2024/03/01 02:54:55;;;;;;;;;;;;;;;21.19;37.60;100164.53;4133351;28;19933;-58
2024/03/01 02:56:57;;;;;;;;;;;;;;;21.17;37.55;100165.66;4133085;28;19929;-58
2024/03/01 02:58:59;;;;;;;;;;;;;;;21.18;37.81;100161.97;4133230;28;19980;-58
2024/03/01 03:01:01;;;;;;;;;;;;;;;21.16;37.63;100166.63;4132566;28;19980;-60
2024/03/01 03:03:03;;;;;;;;;;;;;;;21.16;37.93;100166.63;4132741;28;19929;-58
2024/03/01 03:05:05;;;;;;;;;;;;;;;21.17;37.82;100166.50;4133096;28;20068;-57
2024/03/01 03:07:06;;;;;;;;;;;;;;;21.19;37.66;100155.66;4132686;28;19980;-57
2024/03/01 03:09:11;;;;;;;;;;;;;;;21.20;37.79;100168.91;4132756;28;19926;-57
2024/03/01 03:11:13;;;;;;;;;;;;;;;21.20;37.81;100163.56;4132979;28;20284;-59
2024/03/01 03:13:15;;;;;;;;;;;;;;;21.20;37.58;100163.56;4132622;28;20406;-59
2024/03/01 03:15:17;;;;;;;;;;;;;;;21.19;37.46;100174.38;4132827;28;19950;-59
2024/03/01 03:17:19;;;;;;;;;;;;;;;21.17;37.51;100171.00;4132130;28;19926;-60
2024/03/01 03:19:20;;;;;;;;;;;;;;;21.14;37.49;100173.94;4132685;28;19926;-59
2024/03/01 03:21:22;;;;;;;;;;;;;;;21.13;37.31;100174.91;4132798;28;20454;-57
2024/03/01 03:23:24;;;;;;;;;;;;;;;21.13;37.46;100172.25;4132756;28;19925;-57
2024/03/01 03:25:25;;;;;;;;;;;;;;;21.11;37.47;100166.22;4132665;28;19926;-57
2024/03/01 03:27:27;;;;;;;;;;;;;;;21.11;37.51;100171.56;4132719;28;19934;-57
2024/03/01 03:29:30;;;;;;;;;;;;;;;21.13;37.33;100174.91;4115107;28;19926;-60
2024/03/01 03:31:31;;;;;;;;;;;;;;;21.12;37.46;100170.53;4132262;28;20292;-59
2024/03/01 03:33:33;;;;;;;;;;;;;;;21.14;37.32;100174.81;4115238;28;20516;-58
2024/03/01 03:35:34;;;;;;;;;;;;;;;21.13;37.40;100175.78;4132430;28;19965;-57
2024/03/01 03:37:36;;;;;;;;;;;;;;;21.14;37.55;100171.28;4132263;28;19965;-57
2024/03/01 03:39:37;;;;;;;;;;;;;;;21.13;37.53;100181.13;4132118;28;19980;-58
2024/03/01 03:41:39;;;;;;;;;;;;;;;21.13;37.30;100178.47;4132379;28;19988;-57
2024/03/01 03:43:41;;;;;;;;;;;;;;;21.12;37.13;100186.59;4132510;28;19933;-57
2024/03/01 03:45:42;;;;;;;;;;;;;;;21.08;37.40;100180.66;4131926;28;19930;-57
2024/03/01 03:47:44;;;;;;;;;;;;;;;21.08;37.61;100185.19;4131997;28;19925;-57
2024/03/01 03:49:46;;;;;;;;;;;;;;;21.06;37.17;100188.00;4132274;28;19926;-58
2024/03/01 03:51:48;;;;;;;;;;;;;;;21.06;37.24;100196.03;4131998;28;19936;-58
2024/03/01 03:53:50;;;;;;;;;;;;;;;21.05;37.38;100205.03;4132079;28;19926;-57
2024/03/01 03:55:51;;;;;;;;;;;;;;;21.05;37.40;100197.84;4132023;28;19926;-57
2024/03/01 03:57:52;;;;;;;;;;;;;;;21.08;37.24;100191.38;4132094;28;19961;-57
2024/03/01 03:59:54;;;;;;;;;;;;;;;21.10;37.23;100184.06;4131627;28;20424;-57
2024/03/01 04:01:56;;;;;;;;;;;;;;;21.13;37.20;100183.81;4131662;28;20012;-57
2024/03/01 04:03:57;;;;;;;;;;;;;;;21.13;37.17;100178.47;4131981;28;20363;-58
2024/03/01 04:05:59;;;;;;;;;;;;;;;21.13;37.14;100189.16;4131800;28;20394;-58
2024/03/01 04:08:00;;;;;;;;;;;;;;;21.08;37.35;100175.31;4131817;28;19929;-57
2024/03/01 04:10:05;;;;;;;;;;;;;;;21.05;37.28;100178.28;4131904;28;20458;-58
2024/03/01 04:12:07;;;;;;;;;;;;;;;21.04;37.19;100189.97;4131987;28;19932;-58
2024/03/01 04:14:12;;;;;;;;;;;;;;;21.04;37.19;100203.31;4131525;28;20024;-58
2024/03/01 04:16:14;;;;;;;;;;;;;;;21.03;37.41;100183.78;4131988;28;19961;-58
2024/03/01 04:18:17;;;;;;;;;;;;;;;21.02;37.33;100176.72;4131690;28;19926;-58
2024/03/01 04:20:19;;;;;;;;;;;;;;;21.01;37.14;100180.38;4131790;28;19926;-59
2024/03/01 04:22:21;;;;;;;;;;;;;;;21.01;37.18;100174.16;4131896;28;20303;-59
2024/03/01 04:24:24;;;;;;;;;;;;;;;21.02;37.10;100184.75;4131831;28;19926;-58
2024/03/01 04:26:26;;;;;;;;;;;;;;;21.03;37.29;100177.56;4131695;28;19988;-57
2024/03/01 04:28:27;;;;;;;;;;;;;;;21.04;37.10;100188.13;4131591;28;19937;-58
2024/03/01 04:30:29;;;;;;;;;;;;;;;21.03;36.81;100188.25;4131615;28;19926;-57
2024/03/01 04:32:31;;;;;;;;;;;;;;;21.02;37.11;100183.88;4131738;28;20367;-57
2024/03/01 04:34:33;;;;;;;;;;;;;;;21.00;37.26;100184.03;4131777;28;19926;-58
2024/03/01 04:36:38;;;;;;;;;;;;;;;20.97;36.96;100186.97;4131757;28;19936;-57
2024/03/01 04:38:40;;;;;;;;;;;;;;;20.98;37.06;100195.84;4131734;28;19961;-57
2024/03/01 04:40:42;;;;;;;;;;;;;;;20.98;37.06;100196.69;4131655;28;19925;-58
2024/03/01 04:42:44;;;;;;;;;;;;;;;20.98;37.11;100188.66;4131277;28;19972;-58
2024/03/01 04:44:45;;;;;;;;;;;;;;;20.98;37.06;100185.16;4114519;28;19926;-58
2024/03/01 04:46:47;;;;;;;;;;;;;;;20.96;36.95;100179.09;4131819;28;19926;-58
2024/03/01 04:48:48;;;;;;;;;;;;;;;20.97;36.96;100183.47;4131691;28;19980;-57
2024/03/01 04:50:53;;;;;;;;;;;;;;;20.98;37.09;100186.00;4131687;28;19949;-57
2024/03/01 04:52:55;;;;;;;;;;;;;;;20.99;37.01;100178.84;4131771;28;19925;-58
2024/03/01 04:54:57;;;;;;;;;;;;;;;20.99;36.69;100187.69;4131733;28;20453;-58
2024/03/01 04:56:59;;;;;;;;;;;;;;;20.98;36.92;100183.31;4131210;28;19977;-59
2024/03/01 04:59:03;;;;;;;;;;;;;;;20.95;36.96;100185.41;4131831;28;19926;-59
2024/03/01 05:01:10;;;;;;;;;;;;;;;20.92;36.80;100175.84;4131703;28;20083;-58
2024/03/01 05:03:13;;;;;;;;;;;;;;;20.92;36.97;100175.84;4131498;28;19926;-58
2024/03/01 05:05:15;;;;;;;;;;;;;;;20.93;36.89;100171.34;4131491;28;20362;-59
2024/03/01 05:07:18;;;;;;;;;;;;;;;20.92;36.83;100173.16;4131351;28;19929;-58
2024/03/01 05:09:20;;;;;;;;;;;;;;;20.92;37.04;100169.66;4131723;28;19948;-58
2024/03/01 05:11:21;;;;;;;;;;;;;;;20.90;36.81;100170.63;4131629;28;20435;-58
2024/03/01 05:13:23;;;;;;;;;;;;;;;20.90;36.81;100169.81;4114069;28;19925;-57
2024/03/01 05:15:25;;;;;;;;;;;;;;;20.89;36.74;100166.25;4134537;28;19948;-58
2024/03/01 05:17:27;;;;;;;;;;;;;;;20.89;36.77;100174.28;4134221;28;19973;-58
2024/03/01 05:19:28;;;;;;;;;;;;;;;20.89;36.59;100163.59;4134640;28;19930;-59
2024/03/01 05:21:30;;;;;;;;;;;;;;;20.85;36.73;100156.84;4117202;28;19988;-58
2024/03/01 05:23:31;;;;;;;;;;;;;;;20.84;36.65;100149.78;4134335;28;20292;-58
2024/03/01 05:25:35;;;;;;;;;;;;;;;20.84;36.64;100140.91;4134626;28;19969;-58
2024/03/01 05:27:49;;;;;;;;;;;;;;;20.84;36.67;100140.91;4134088;28;19926;-58
2024/03/01 05:29:51;;;;;;;;;;;;;;;20.85;36.64;100142.63;4134692;28;19951;-58
2024/03/01 05:31:53;;;;;;;;;;;;;;;20.84;36.65;100141.78;4134340;28;19932;-57
2024/03/01 05:33:55;;;;;;;;;;;;;;;20.84;36.70;100138.25;4134529;28;20380;-58
2024/03/01 05:35:56;;;;;;;;;;;;;;;20.85;36.81;100135.47;4116842;28;20483;-58
2024/03/01 05:37:58;;;;;;;;;;;;;;;20.87;36.85;100120.09;4134338;28;19932;-58
2024/03/01 05:40:01;;;;;;;;;;;;;;;20.88;36.69;100123.66;4134369;28;19980;-58
2024/03/01 05:42:06;;;;;;;;;;;;;;;20.90;36.36;100124.38;4134040;28;19926;-58
2024/03/01 05:44:08;;;;;;;;;;;;;;;20.92;36.34;100125.06;4134234;28;19929;-58
2024/03/01 05:46:16;;;;;;;;;;;;;;;20.93;36.55;100126.75;4134543;28;19925;-58
2024/03/01 05:48:18;;;;;;;;;;;;;;;20.89;36.67;100120.81;4133726;28;19926;-58
2024/03/01 05:50:20;;;;;;;;;;;;;;;20.86;36.49;100114.91;4134096;28;20013;-57
2024/03/01 05:52:21;;;;;;;;;;;;;;;20.82;36.77;100109.00;4133838;28;19926;-56
2024/03/01 05:54:24;;;;;;;;;;;;;;;20.84;36.54;100103.50;4134159;28;19933;-56
2024/03/01 05:56:25;;;;;;;;;;;;;;;20.82;36.59;100103.66;4116551;28;19933;-57
2024/03/01 05:58:30;;;;;;;;;;;;;;;20.81;36.52;100101.13;4134043;28;19933;-58
2024/03/01 06:00:31;;;;;;;;;;;;;;;20.81;36.83;100101.94;4133769;28;19926;-58
2024/03/01 06:02:33;;;;;;;;;;;;;;;20.82;36.63;100084.09;4133840;28;19926;-57
2024/03/01 06:04:35;;;;;;;;;;;;;;;20.81;36.53;100083.25;4134163;28;19930;-57
2024/03/01 06:06:37;;;;;;;;;;;;;;;20.80;36.69;100080.72;4134143;28;19930;-57
2024/03/01 06:08:38;;;;;;;;;;;;;;;20.82;36.63;100076.09;4133988;28;19930;-58
2024/03/01 06:10:40;;;;;;;;;;;;;;;20.82;36.57;100071.56;4133761;28;19926;-58
2024/03/01 06:12:41;;;;;;;;;;;;;;;20.82;36.34;100071.56;4133605;28;19933;-57
2024/03/01 06:14:43;;;;;;;;;;;;;;;20.81;36.15;100063.69;4133800;28;19926;-58
2024/03/01 06:16:45;;;;;;;;;;;;;;;20.78;36.63;100063.97;4133689;28;19926;-57
2024/03/01 06:18:46;;;;;;;;;;;;;;;20.77;36.42;100064.94;4133497;28;19996;-57
2024/03/01 06:20:48;;;;;;;;;;;;;;;20.77;36.29;100049.75;4133637;28;19952;-57
2024/03/01 06:22:50;;;;;;;;;;;;;;;20.76;36.43;100045.41;4133732;28;19926;-58
2024/03/01 06:24:51;;;;;;;;;;;;;;;20.75;36.49;100041.03;4132783;28;20017;-58
2024/03/01 06:26:55;;;;;;;;;;;;;;;20.73;36.35;100041.19;4133392;28;19934;-57
2024/03/01 06:28:59;;;;;;;;;;;;;;;20.73;36.59;100038.50;4133575;28;20414;-57
2024/03/01 06:31:01;;;;;;;;;;;;;;;20.74;36.42;100045.53;4133235;28;19980;-58
2024/03/01 06:33:03;;;;;;;;;;;;;;;20.75;36.53;100038.34;4133387;28;19980;-58
2024/03/01 06:35:05;;;;;;;;;;;;;;;20.76;36.46;100045.41;4133229;28;19933;-57
2024/03/01 06:37:06;;;;;;;;;;;;;;;20.75;36.11;100041.03;4133177;28;19925;-58
2024/03/01 06:39:08;;;;;;;;;;;;;;;20.72;36.32;100028.78;4132984;28;19926;-57
2024/03/01 06:41:10;;;;;;;;;;;;;;;20.70;36.38;100025.38;4133357;28;20348;-57
2024/03/01 06:43:14;;;;;;;;;;;;;;;20.69;36.64;100026.38;4133343;28;19926;-58
2024/03/01 06:45:16;;;;;;;;;;;;;;;20.69;36.31;100031.72;4133344;28;19925;-57
2024/03/01 06:47:18;;;;;;;;;;;;;;;20.71;36.50;100029.75;4133386;28;19930;-57
2024/03/01 06:49:23;;;;;;;;;;;;;;;20.70;36.44;100022.69;4133467;28;19937;-57
2024/03/01 06:51:24;;;;;;;;;;;;;;;20.70;36.49;100016.53;4133080;28;19926;-58
2024/03/01 06:53:26;;;;;;;;;;;;;;;20.69;36.48;100021.03;4133294;28;20299;-57
2024/03/01 06:55:31;;;;;;;;;;;;;;;20.70;36.62;100013.84;4133100;28;19926;-59
2024/03/01 06:57:33;;;;;;;;;;;;;;;20.70;36.23;100016.53;4133193;28;20378;-58
2024/03/01 06:59:36;;;;;;;;;;;;;;;20.69;36.40;100012.16;4132992;28;19930;-57
2024/03/01 07:01:37;;;;;;;;;;;;;;;20.67;36.18;100006.97;4132954;28;19926;-58
2024/03/01 07:03:39;;;;;;;;;;;;;;;20.68;36.55;100010.47;4132891;28;19936;-57
2024/03/01 07:05:41;;;;;;;;;;;;;;;20.65;36.50;100014.25;4132924;28;20024;-57
2024/03/01 07:07:43;;;;;;;;;;;;;;;20.65;36.33;100013.44;4132594;28;19930;-57
2024/03/01 07:09:46;;;;;;;;;;;;;;;20.64;36.40;100020.59;4132891;28;19930;-58
2024/03/01 07:11:48;;;;;;;;;;;;;;;20.65;36.53;100008.09;4132916;28;19926;-57
2024/03/01 07:13:49;;;;;;;;;;;;;;;20.65;36.27;100006.25;4132674;28;19929;-57
2024/03/01 07:15:51;;;;;;;;;;;;;;;20.65;36.45;100003.56;4132886;28;20287;-58
2024/03/01 07:17:53;;;;;;;;;;;;;;;20.65;36.27;99979.53;4132485;28;19933;-58
2024/03/01 07:19:55;;;;;;;;;;;;;;;20.67;36.07;99996.28;4132888;28;19925;-57
2024/03/01 07:21:56;;;;;;;;;;;;;;;20.69;36.33;99988.97;4132688;28;19926;-58
2024/03/01 07:23:58;;;;;;;;;;;;;;;20.69;35.96;99970.28;4132570;28;19936;-58
2024/03/01 07:25:59;;;;;;;;;;;;;;;20.71;36.18;99962.09;4132526;28;19933;-58
2024/03/01 07:28:05;;;;;;;;;;;;;;;20.70;36.16;99953.22;4132606;28;19926;-58
2024/03/01 07:30:07;;;;;;;;;;;;;;;20.74;35.99;99959.16;4132709;28;19953;-57
2024/03/01 07:32:08;;;;;;;;;;;;;;;20.74;36.12;99932.44;4132489;28;19926;-58
2024/03/01 07:34:10;;;;;;;;;;;;;;;20.73;36.30;99936.97;4132906;28;20016;-57
2024/03/01 07:36:12;;;;;;;;;;;;;;;20.74;36.08;99936.00;4132071;28;19925;-57
2024/03/01 07:38:14;;;;;;;;;;;;;;;20.71;35.97;99933.53;4132125;28;19925;-57
2024/03/01 07:40:16;;;;;;;;;;;;;;;20.70;36.03;99915.00;4132577;28;19992;-57
2024/03/01 07:42:17;;;;;;;;;;;;;;;20.71;36.06;99904.16;4132777;28;19926;-58
2024/03/01 07:44:19;;;;;;;;;;;;;;;20.74;35.80;99911.06;4132359;28;19960;-58
2024/03/01 07:46:20;;;;;;;;;;;;;;;20.74;36.16;99901.25;4132358;28;19930;-58
2024/03/01 07:48:22;;;;;;;;;;;;;;;20.74;36.03;99908.41;4132124;28;19932;-57
2024/03/01 07:50:23;;;;;;;;;;;;;;;20.74;35.96;99908.41;4132233;28;20013;-58
2024/03/01 07:52:28;;;;;;;;;;;;;;;20.73;36.10;99898.72;4132169;28;20384;-58
2024/03/01 07:54:30;;;;;;;;;;;;;;;20.72;35.84;99899.69;4132156;28;20016;-58
2024/03/01 07:56:36;;;;;;;;;;;;;;;20.71;36.16;99885.44;4132118;28;20487;-57
2024/03/01 07:58:37;;;;;;;;;;;;;;;20.70;36.05;99890.94;4132205;28;20043;-58
2024/03/01 08:00:39;;;;;;;;;;;;;;;20.70;35.75;99888.28;4132052;28;20319;-58
2024/03/01 08:02:41;;;;;;;;;;;;;;;20.70;36.14;99877.59;4132094;28;19925;-58
2024/03/01 08:04:43;;;;;;;;;;;;;;;20.69;36.18;99881.22;4131952;28;19925;-57
2024/03/01 08:06:45;;;;;;;;;;;;;;;20.68;35.99;99867.03;4131720;28;20024;-57
2024/03/01 08:08:48;;;;;;;;;;;;;;;20.68;35.78;99861.69;4131931;28;20378;-58
2024/03/01 08:10:50;;;;;;;;;;;;;;;20.67;35.67;99856.47;4132128;28;19941;-57
2024/03/01 08:12:51;;;;;;;;;;;;;;;20.66;35.99;99854.81;4132399;28;20272;-57
2024/03/01 08:14:54;;;;;;;;;;;;;;;20.66;35.79;99850.31;4132064;28;19925;-56
2024/03/01 08:16:56;;;;;;;;;;;;;;;20.64;35.84;99844.25;4131814;28;19926;-57
2024/03/01 08:19:01;;;;;;;;;;;;;;;20.63;36.00;99845.22;4131962;28;19933;-57
2024/03/01 08:21:06;;;;;;;;;;;;;;;20.63;35.85;99839.06;4131686;28;19926;-57
2024/03/01 08:23:11;;;;;;;;;;;;;;;20.63;35.96;99855.91;4132040;28;19926;-58
2024/03/01 08:25:12;;;;;;;;;;;;;;;20.63;35.97;99837.22;4131932;28;19932;-57
2024/03/01 08:27:15;;;;;;;;;;;;;;;20.65;35.74;99840.59;4131999;28;20288;-58
2024/03/01 08:29:17;;;;;;;;;;;;;;;20.65;35.88;99839.75;4131688;28;19925;-58
2024/03/01 08:31:35;;;;;;;;;;;;;;;20.64;35.94;99841.56;4114740;28;19984;-58
2024/03/01 08:33:41;;;;;;;;;;;;;;;20.66;35.71;99823.59;4131629;28;19926;-57
2024/03/01 08:35:43;;;;;;;;;;;;;;;20.63;35.87;99829.19;4131188;28;19926;-56
2024/03/01 08:37:50;;;;;;;;;;;;;;;20.63;35.57;99817.69;4131672;28;19926;-57
2024/03/01 08:39:56;;;;;;;;;;;;;;;20.60;35.61;99824.16;4099763;29;20327;-56
2024/03/01 08:42:04;;;;;;;;;;;;;;;20.62;35.45;99819.53;4099848;29;19927;-56
2024/03/01 08:44:29;;;;;;;;;;;;;;;20.60;35.57;99816.13;4099899;29;19930;-57
2024/03/01 08:46:31;;;;;;;;;;;;;;;20.64;35.62;99806.00;4099628;29;20025;-58
2024/03/01 08:48:34;;;;;;;;;;;;;;;20.60;35.86;99797.44;4101752;28;20450;-57
2024/03/01 08:50:44;;;;;;;;;;;;;;;20.59;35.89;99795.75;4102743;29;19930;-58
2024/03/01 08:52:47;;;;;;;;;;;;;;;20.59;35.66;99798.41;4102889;29;19936;-57
2024/03/01 08:54:52;;;;;;;;;;;;;;;20.62;35.71;99794.63;4103007;29;19933;-57
2024/03/01 08:57:01;;;;;;;;;;;;;;;20.61;35.63;99787.59;4102919;29;19927;-58
2024/03/01 08:59:08;;;;;;;;;;;;;;;20.61;35.67;99784.91;4102800;29;20416;-58
2024/03/01 09:01:25;;;;;;;;;;;;;;;20.58;35.58;99765.53;4102864;29;19977;-58
2024/03/01 09:03:29;;;;;;;;;;;;;;;20.56;35.47;99775.50;4102720;29;19926;-58
2024/03/01 09:05:39;;;;;;;;;;;;;;;20.57;35.62;99771.00;4102681;29;20336;-58
2024/03/01 09:07:41;;;;;;;;;;;;;;;20.57;35.78;99762.97;4102600;29;19927;-58
2024/03/01 09:09:42;;;;;;;;;;;;;;;20.55;35.72;99770.31;4085570;29;19933;-58
2024/03/01 09:11:44;;;;;;;;;;;;;;;20.56;35.60;99764.81;4102794;29;19973;-58
2024/03/01 09:13:46;;;;;;;;;;;;;;;20.54;35.79;99772.13;4103114;29;19930;-58
2024/03/01 09:15:48;;;;;;;;;;;;;;;20.62;35.51;99765.22;4102472;29;19927;-58
2024/03/01 09:17:53;;;;;;;;;;;;;;;20.59;35.42;99766.38;4102268;29;19927;-58
2024/03/01 09:19:55;;;;;;;;;;;;;;;20.57;35.46;99747.81;4102212;29;19933;-58
2024/03/01 09:21:57;;;;;;;;;;;;;;;20.56;35.53;99748.78;4102829;29;20455;-58
2024/03/01 09:23:59;;;;;;;;;;;;;;;20.55;35.75;99754.28;4102510;29;19962;-58
2024/03/01 09:26:04;;;;;;;;;;;;;;;20.53;35.36;99741.06;4102446;29;19933;-57
2024/03/01 09:28:06;;;;;;;;;;;;;;;20.53;35.55;99754.41;4102314;29;19961;-57
2024/03/01 09:30:11;;;;;;;;;;;;;;;20.56;35.68;99753.28;4102135;29;19926;-57
2024/03/01 09:32:14;;;;;;;;;;;;;;;20.56;35.48;99745.25;4102219;29;19927;-58
2024/03/01 09:34:16;;;;;;;;;;;;;;;20.54;35.55;99729.41;4102030;29;19950;-58
2024/03/01 09:36:19;;;;;;;;;;;;;;;20.52;35.52;99730.53;4102046;29;20017;-57
2024/03/01 09:38:22;;;;;;;;;;;;;;;20.50;35.77;99717.31;4109273;28;20398;-58
2024/03/01 09:40:42;;;;;;;;;;;;;;;20.58;35.59;99725.47;4134206;28;19933;-58
2024/03/01 09:42:50;;;;;;;;;;;;;;;20.55;35.76;99715.06;4134307;28;19933;-57
2024/03/01 09:45:05;;;;;;;;;;;;;;;20.54;35.46;99713.38;4134076;28;19933;-57
2024/03/01 09:47:24;;;;;;;;;;;;;;;20.53;35.68;99718.84;4116406;28;19926;-57
2024/03/01 09:49:26;;;;;;;;;;;;;;;20.51;35.92;99712.81;4134024;28;20443;-58
2024/03/01 09:51:40;;;;;;;;;;;;;;;20.50;35.81;99713.78;4116739;28;19953;-58
2024/03/01 09:54:00;;;;;;;;;;;;;;;20.51;35.87;99712.81;4134083;28;19933;-57
2024/03/01 09:56:14;;;;;;;;;;;;;;;20.55;35.61;99717.72;4134020;28;19929;-59
2024/03/01 09:58:26;;;;;;;;;;;;;;;20.52;35.56;99709.16;4134188;28;19926;-58
2024/03/01 10:00:33;;;;;;;;;;;;;;;20.49;35.95;99710.28;4133211;28;19926;-58
2024/03/01 10:02:53;;;;;;;;;;;;;;;20.50;35.84;99716.47;4133497;28;19985;-58
2024/03/01 10:05:00;;;;;;;;;;;;;;;20.51;35.80;99707.47;4133930;28;20000;-58
2024/03/01 10:07:05;;;;;;;;;;;;;;;20.52;35.76;99703.81;4133666;28;19925;-58
2024/03/01 10:09:12;;;;;;;;;;;;;;;20.51;35.89;99710.13;4133669;28;19926;-58
2024/03/01 10:11:38;;;;;;;;;;;;;;;20.49;36.15;99696.94;4126333;28;19926;-58
2024/03/01 10:13:53;;;;;;;;;;;;;;;20.50;36.04;99705.78;4133605;28;19980;-58
2024/03/01 10:16:14;;;;;;;;;;;;;;;20.52;36.02;99707.34;4133745;28;19930;-57
2024/03/01 10:18:36;;;;;;;;;;;;;;;20.52;35.87;99712.69;4116105;28;19942;-58
2024/03/01 10:20:56;;;;;;;;;;;;;;;20.54;35.92;99697.34;4124994;28;19937;-58
2024/03/01 10:23:01;;;;;;;;;;;;;;;20.54;36.00;99704.53;4131348;28;19953;-58
2024/03/01 10:25:03;;;;;;;;;;;;;;;20.53;35.86;99694.81;4133680;28;19926;-57
2024/03/01 10:27:20;;;;;;;;;;;;;;;20.53;35.92;99710.84;4130951;28;19926;-58
2024/03/01 10:29:21;;;;;;;;;;;;;;;20.52;36.33;99712.69;4117023;28;19966;-58
2024/03/01 10:31:29;;;;;;;;;;;;;;;20.54;36.16;99708.03;4119407;28;20292;-54
2024/03/01 10:33:30;;;;;;;;;;;;;;;20.56;36.22;99711.41;4110888;28;19934;-55
2024/03/01 10:35:40;;;;;;;;;;;;;;;20.58;36.31;99703.22;4130114;28;19941;-55
2024/03/01 10:38:05;;;;;;;;;;;;;;;20.62;36.26;99714.47;4131578;28;20763;-55